Time;durP1;ratioP1;P1;durP2;ratioP2;P2;SDS_P1;SDS_P2;PMS_P1;PMS_P2;Temp;Humidity;BMP_temperature;BMP_pressure;BME280_temperature;BME280_humidity;BME280_pressure;Samples;Min_cycle;Max_cycle;Signal;HPM_P1;HPM_P2
2022/08/27 00:02:24;;;;;;;7.88;3.70;;;14.50;99.90;;;;;;5054638;28;20127;-67
2022/08/27 00:04:50;;;;;;;6.90;3.20;;;14.50;99.90;;;;;;5073778;28;20464;-67
2022/08/27 00:07:16;;;;;;;8.82;4.20;;;14.50;99.90;;;;;;5055734;28;20036;-67
2022/08/27 00:09:43;;;;;;;7.90;4.28;;;14.50;99.90;;;;;;5055017;28;20060;-67
2022/08/27 00:12:09;;;;;;;7.72;3.75;;;14.50;99.90;;;;;;5055307;28;20086;-67
2022/08/27 00:14:36;;;;;;;7.55;3.50;;;14.50;99.90;;;;;;5073642;28;20119;-67
2022/08/27 00:17:04;;;;;;;8.10;3.95;;;14.50;99.90;;;;;;5054725;28;20132;-67
2022/08/27 00:19:30;;;;;;;6.93;3.25;;;14.50;99.90;;;;;;5073381;28;20484;-66
2022/08/27 00:21:56;;;;;;;9.57;4.45;;;14.50;99.90;;;;;;5055093;28;20044;-66
2022/08/27 00:24:22;;;;;;;7.50;3.72;;;14.60;99.90;;;;;;5072690;28;20037;-66
2022/08/27 00:26:49;;;;;;;6.82;3.88;;;14.60;99.90;;;;;;5038815;28;20052;-66
2022/08/27 00:29:15;;;;;;;7.53;3.95;;;14.70;99.90;;;;;;5072154;28;20055;-67
2022/08/27 00:31:41;;;;;;;7.68;3.67;;;14.70;99.90;;;;;;5055416;28;20086;-67
2022/08/27 00:34:06;;;;;;;7.47;4.03;;;14.70;99.90;;;;;;5072721;28;20028;-67
2022/08/27 00:36:32;;;;;;;9.10;4.18;;;14.70;99.90;;;;;;5072534;28;20083;-67
2022/08/27 00:38:58;;;;;;;9.55;4.35;;;14.70;99.90;;;;;;5072979;28;20071;-67
2022/08/27 00:41:23;;;;;;;8.13;4.15;;;14.70;99.90;;;;;;5054634;28;20037;-67
2022/08/27 00:43:58;;;;;;;8.07;4.00;;;14.70;99.90;;;;;;5054770;28;20051;-67
2022/08/27 00:46:27;;;;;;;;;;;14.70;99.90;;;;;;5072462;28;20095;-67
2022/08/27 00:48:56;;;;;;;7.30;3.40;;;14.60;99.90;;;;;;5054952;28;19928;-67
2022/08/27 00:51:23;;;;;;;5.43;3.28;;;14.60;99.90;;;;;;5053899;28;20044;-67
2022/08/27 00:53:50;;;;;;;7.20;3.55;;;14.60;99.90;;;;;;5038375;28;20041;-67
2022/08/27 00:56:26;;;;;;;6.35;3.28;;;14.50;99.90;;;;;;5054019;28;20036;-67
2022/08/27 00:58:54;;;;;;;6.63;3.78;;;14.60;99.90;;;;;;5054277;28;20052;-67
2022/08/27 01:01:33;;;;;;;7.80;3.53;;;14.60;99.90;;;;;;5054295;28;20400;-67
2022/08/27 01:04:04;;;;;;;6.70;3.72;;;14.50;99.90;;;;;;5054679;28;20040;-67
2022/08/27 01:06:34;;;;;;;6.90;3.80;;;14.50;99.90;;;;;;5072062;28;20119;-67
2022/08/27 01:09:08;;;;;;;6.32;3.25;;;14.50;99.90;;;;;;5038166;28;20115;-67
2022/08/27 01:11:34;;;;;;;;;;;14.50;99.90;;;;;;5072177;28;20044;-67
2022/08/27 01:14:02;;;;;;;9.95;3.80;;;14.30;99.90;;;;;;5072641;28;19916;-67
2022/08/27 01:16:34;;;;;;;7.75;3.30;;;14.30;99.90;;;;;;5054639;28;20051;-67
2022/08/27 01:19:00;;;;;;;6.47;2.63;;;14.30;99.90;;;;;;5053814;28;20475;-67
2022/08/27 01:21:40;;;;;;;6.03;2.92;;;14.30;99.90;;;;;;5071911;28;20051;-67
2022/08/27 01:24:31;;;;;;;6.47;3.40;;;14.30;99.90;;;;;;5054246;28;20037;-67
2022/08/27 01:26:58;;;;;;;6.60;3.20;;;14.30;99.90;;;;;;5044444;28;20060;-67
2022/08/27 01:29:25;;;;;;;8.40;3.47;;;14.30;99.90;;;;;;5053869;28;20044;-67
2022/08/27 01:31:50;;;;;;;7.55;3.38;;;14.20;99.90;;;;;;5072217;28;20480;-67
2022/08/27 01:34:16;;;;;;;9.45;3.38;;;14.20;99.90;;;;;;5053335;28;20074;-66
2022/08/27 01:36:42;;;;;;;6.40;3.33;;;14.30;99.90;;;;;;5072492;28;20033;-67
2022/08/27 01:39:07;;;;;;;6.95;2.97;;;14.40;99.90;;;;;;5053991;28;20071;-67
2022/08/27 01:41:33;;;;;;;6.45;2.83;;;;;;;;;;5053729;28;20518;-67
2022/08/27 01:43:59;;;;;;;7.15;3.33;;;14.20;99.90;;;;;;5054394;28;20536;-66
2022/08/27 01:46:27;;;;;;;5.40;2.70;;;13.70;99.90;;;;;;5070539;28;20056;-66
2022/08/27 01:48:53;;;;;;;6.13;3.25;;;14.30;99.90;;;;;;5072356;28;20040;-67
2022/08/27 01:51:19;;;;;;;5.85;3.15;;;;;;;;;;5071610;28;20554;-66
2022/08/27 01:53:46;;;;;;;7.70;3.10;;;;;;;;;;5053464;28;20077;-66
2022/08/27 01:56:12;;;;;;;5.97;3.15;;;14.10;99.90;;;;;;5053697;28;20045;-66
2022/08/27 01:58:38;;;;;;;8.30;2.97;;;14.10;99.90;;;;;;5054141;28;20079;-66
2022/08/27 02:01:08;;;;;;;5.22;2.72;;;13.70;99.90;;;;;;5070813;28;20523;-66
2022/08/27 02:03:36;;;;;;;7.13;3.42;;;;;;;;;;5054530;28;20115;-66
2022/08/27 02:06:08;;;;;;;5.63;2.92;;;14.10;99.90;;;;;;5053747;28;20095;-67
2022/08/27 02:08:34;;;;;;;5.78;3.08;;;;;;;;;;5056843;28;20040;-66
2022/08/27 02:11:00;;;;;;;6.10;2.75;;;14.00;99.90;;;;;;5041485;28;20083;-66
2022/08/27 02:13:26;;;;;;;7.80;2.90;;;;;;;;;;5057752;28;20048;-66
2022/08/27 02:15:52;;;;;;;8.00;3.13;;;;;;;;;;5075213;28;20048;-66
2022/08/27 02:18:18;;;;;;;6.32;3.20;;;;;;;;;;5057254;28;20048;-66
2022/08/27 02:20:46;;;;;;;6.50;3.00;;;14.10;99.90;;;;;;5057867;28;20044;-66
2022/08/27 02:23:12;;;;;;;7.03;3.28;;;;;;;;;;5056779;28;20048;-67
2022/08/27 02:25:39;;;;;;;6.93;3.78;;;;;;;;;;5075783;28;20506;-66
2022/08/27 02:28:07;;;;;;;5.70;3.15;;;14.30;99.90;;;;;;5057560;28;20376;-66
2022/08/27 02:30:33;;;;;;;7.72;3.22;;;14.10;99.90;;;;;;5057247;28;20385;-66
2022/08/27 02:33:01;;;;;;;6.63;2.97;;;14.30;99.90;;;;;;5057697;28;20037;-66
2022/08/27 02:35:28;;;;;;;6.82;3.47;;;;;;;;;;5057408;28;20488;-67
2022/08/27 02:37:54;;;;;;;6.55;3.70;;;14.20;99.90;;;;;;5057006;28;20484;-66
2022/08/27 02:40:21;;;;;;;6.88;3.67;;;14.20;99.90;;;;;;5056954;28;20643;-67
2022/08/27 02:42:47;;;;;;;6.82;3.35;;;;;;;;;;5040386;28;20033;-66
2022/08/27 02:45:14;;;;;;;6.95;3.65;;;14.20;99.90;;;;;;5074519;28;20453;-67
2022/08/27 02:47:40;;;;;;;8.55;3.28;;;14.20;99.90;;;;;;5075380;28;20041;-67
2022/08/27 02:50:07;;;;;;;6.43;3.17;;;14.30;99.90;;;;;;5073668;28;20116;-66
2022/08/27 02:52:34;;;;;;;6.22;3.05;;;14.00;99.90;;;;;;5075187;28;20122;-66
2022/08/27 02:55:00;;;;;;;6.45;3.78;;;14.30;99.90;;;;;;5075460;28;20033;-66
2022/08/27 02:57:26;;;;;;;6.35;3.13;;;14.10;99.90;;;;;;5073971;28;20373;-67
2022/08/27 02:59:52;;;;;;;6.22;3.47;;;13.80;99.90;;;;;;5075006;28;20070;-67
2022/08/27 03:02:19;;;;;;;7.38;3.35;;;14.30;99.90;;;;;;5056567;28;20040;-67
2022/08/27 03:04:44;;;;;;;9.20;3.17;;;14.30;99.90;;;;;;5074153;28;20066;-66
2022/08/27 03:07:10;;;;;;;6.72;3.15;;;14.50;99.90;;;;;;5056459;28;20037;-67
2022/08/27 03:09:36;;;;;;;6.03;3.10;;;;;;;;;;5074989;28;20120;-66
2022/08/27 03:12:02;;;;;;;5.95;3.38;;;13.90;99.90;;;;;;5056012;28;20040;-67
2022/08/27 03:14:28;;;;;;;5.70;3.25;;;14.20;99.90;;;;;;5040574;28;20040;-67
2022/08/27 03:16:54;;;;;;;7.72;3.10;;;14.20;99.90;;;;;;5040537;28;20079;-67
2022/08/27 03:19:20;;;;;;;7.50;3.53;;;14.30;99.90;;;;;;5055382;28;20047;-66
2022/08/27 03:21:46;;;;;;;6.45;3.13;;;14.20;99.90;;;;;;5074905;28;20052;-66
2022/08/27 03:24:12;;;;;;;6.93;3.28;;;;;;;;;;5074216;28;20495;-66
2022/08/27 03:26:38;;;;;;;7.00;3.13;;;14.30;99.90;;;;;;5055748;28;20127;-66
2022/08/27 03:29:04;;;;;;;6.97;3.25;;;14.60;99.90;;;;;;5056150;28;20037;-67
2022/08/27 03:31:30;;;;;;;6.63;3.33;;;14.40;99.90;;;;;;5074579;28;20177;-67
2022/08/27 03:34:02;;;;;;;5.75;3.17;;;14.30;99.90;;;;;;5055644;28;20477;-67
2022/08/27 03:36:29;;;;;;;6.65;3.10;;;14.30;99.90;;;;;;5074591;28;20044;-67
2022/08/27 03:38:55;;;;;;;7.78;3.05;;;;;;;;;;5055714;28;20059;-66
2022/08/27 03:41:22;;;;;;;7.35;3.08;;;14.50;99.90;;;;;;5056184;28;20476;-67
2022/08/27 03:43:48;;;;;;;7.03;3.00;;;14.30;99.90;;;;;;5039616;28;20040;-66
2022/08/27 03:46:16;;;;;;;7.43;3.10;;;14.60;99.90;;;;;;5072580;28;20048;-67
2022/08/27 03:48:42;;;;;;;5.45;2.75;;;;;;;;;;5074098;28;20480;-67
2022/08/27 03:51:12;;;;;;;7.47;3.42;;;14.70;99.90;;;;;;5055728;28;20115;-67
2022/08/27 03:53:41;;;;;;;5.97;2.63;;;14.30;99.90;;;;;;5038739;28;20041;-67
2022/08/27 03:56:07;;;;;;;6.15;2.90;;;14.60;99.90;;;;;;5055541;28;20047;-67
2022/08/27 03:58:34;;;;;;;5.80;3.10;;;14.20;99.90;;;;;;5056317;28;20055;-67
2022/08/27 04:01:00;;;;;;;5.40;3.42;;;14.60;99.90;;;;;;5072954;28;20041;-67
2022/08/27 04:03:27;;;;;;;7.95;2.90;;;14.40;99.90;;;;;;5073533;28;20446;-67
2022/08/27 04:05:54;;;;;;;8.90;3.03;;;14.20;99.90;;;;;;5055867;28;20048;-67
2022/08/27 04:08:21;;;;;;;6.03;3.00;;;14.20;99.90;;;;;;5072648;28;20043;-67
2022/08/27 04:10:48;;;;;;;5.85;2.80;;;14.50;99.90;;;;;;5055969;28;20048;-66
2022/08/27 04:13:14;;;;;;;6.30;3.28;;;14.10;99.90;;;;;;5055309;28;20041;-67
2022/08/27 04:15:48;;;;;;;6.32;3.40;;;14.40;99.90;;;;;;5055267;28;20044;-67
2022/08/27 04:18:15;;;;;;;7.90;3.03;;;14.40;99.90;;;;;;5073187;28;20032;-66
2022/08/27 04:20:48;;;;;;;6.60;3.20;;;14.60;99.90;;;;;;5073555;28;20052;-67
2022/08/27 04:23:14;;;;;;;5.10;2.60;;;14.20;99.90;;;;;;5072144;28;20119;-66
2022/08/27 04:25:41;;;;;;;7.03;2.67;;;14.40;99.90;;;;;;5055564;28;20441;-67
2022/08/27 04:28:08;;;;;;;6.15;3.25;;;14.50;99.90;;;;;;5054005;28;20500;-67
2022/08/27 04:30:43;;;;;;;5.43;2.38;;;14.30;99.90;;;;;;5072715;28;20110;-67
2022/08/27 04:33:09;;;;;;;6.35;2.45;;;14.60;99.90;;;;;;5072848;28;20036;-67
2022/08/27 04:35:35;;;;;;;6.97;2.92;;;;;;;;;;5072512;28;20037;-66
2022/08/27 04:38:03;;;;;;;5.95;2.75;;;14.70;99.90;;;;;;5055432;28;20044;-67
2022/08/27 04:41:18;;;;;;;6.78;2.60;;;14.10;99.90;;;;;;5073132;28;20047;-67
2022/08/27 04:43:15;;;;;;;8.60;3.45;;;14.60;99.90;;;;;;5053882;28;20082;-67
2022/08/27 04:45:46;;;;;;;7.55;3.78;;;14.70;99.90;;;;;;5054983;28;20048;-67
2022/08/27 04:48:14;;;;;;;8.40;3.08;;;14.70;99.90;;;;;;5054677;28;20071;-67
2022/08/27 04:50:41;;;;;;;8.48;3.40;;;14.50;99.90;;;;;;5072151;28;20037;-67
2022/08/27 04:53:08;;;;;;;6.13;2.50;;;14.60;99.90;;;;;;5054517;28;20055;-66
2022/08/27 04:55:57;;;;;;;6.57;2.30;;;14.70;99.90;;;;;;5054930;28;20542;-67
2022/08/27 04:58:25;;;;;;;7.70;2.85;;;14.70;99.90;;;;;;5053593;28;20041;-67
2022/08/27 05:00:53;;;;;;;4.95;2.55;;;14.60;99.90;;;;;;5072839;28;20079;-67
2022/08/27 05:03:22;;;;;;;8.45;2.97;;;14.90;99.90;;;;;;5037088;28;20056;-67
2022/08/27 05:05:48;;;;;;;6.88;2.85;;;14.90;99.90;;;;;;5072517;28;20038;-66
2022/08/27 05:08:16;;;;;;;9.07;2.85;;;14.50;99.90;;;;;;5054408;28;20032;-67
2022/08/27 05:10:49;;;;;;;8.90;3.08;;;15.20;99.90;;;;;;5053828;28;20048;-67
2022/08/27 05:13:19;;;;;;;10.93;2.95;;;15.20;99.90;;;;;;5054151;28;20040;-67
2022/08/27 05:15:46;;;;;;;7.10;2.65;;;15.00;99.90;;;;;;5072637;28;20044;-67
2022/08/27 05:18:12;;;;;;;7.38;2.47;;;15.30;99.90;;;;;;5053424;28;20055;-67
2022/08/27 05:20:44;;;;;;;6.00;3.13;;;15.00;99.90;;;;;;5072594;28;20045;-67
2022/08/27 05:23:11;;;;;;;8.98;3.05;;;15.60;99.90;;;;;;5054037;28;20076;-67
2022/08/27 05:25:42;;;;;;;8.65;3.15;;;15.30;99.90;;;;;;5072020;28;20074;-67
2022/08/27 05:28:09;;;;;;;5.20;2.15;;;15.50;99.90;;;;;;5054137;28;20096;-67
2022/08/27 05:30:42;;;;;;;6.03;2.35;;;15.30;99.90;;;;;;5054462;28;20032;-67
2022/08/27 05:33:09;;;;;;;5.82;2.25;;;15.20;99.90;;;;;;5071183;28;20032;-67
2022/08/27 05:35:42;;;;;;;7.43;2.55;;;15.80;99.90;;;;;;5054509;28;20111;-67
2022/08/27 05:38:08;;;;;;;5.57;2.55;;;15.40;99.90;;;;;;5053874;28;20047;-67
2022/08/27 05:40:34;;;;;;;5.93;2.40;;;15.70;99.90;;;;;;5071311;28;20051;-67
2022/08/27 05:43:00;;;;;;;6.90;2.50;;;;;;;;;;5075593;28;20040;-66
2022/08/27 05:45:26;;;;;;;10.63;2.75;;;;;;;;;;5089249;28;20178;-67
2022/08/27 05:47:52;;;;;;;7.38;2.42;;;15.80;99.90;;;;;;5087436;28;20074;-66
2022/08/27 05:50:17;;;;;;;7.88;2.95;;;15.90;99.90;;;;;;5053979;28;20126;-66
2022/08/27 05:52:43;;;;;;;5.07;1.90;;;;;;;;;;5071358;28;20612;-67
2022/08/27 05:55:11;;;;;;;7.95;2.70;;;;;;;;;;5053022;28;20044;-66
2022/08/27 05:57:37;;;;;;;4.35;2.17;;;15.80;99.90;;;;;;5072049;28;20117;-67
2022/08/27 06:02:49;;;;;;;9.68;2.45;;;;;;;;;;5039314;28;20125;-66
2022/08/27 06:05:15;;;;;;;4.95;1.80;;;16.00;99.90;;;;;;5065225;28;20551;-64
2022/08/27 06:07:41;;;;;;;5.30;2.67;;;;;;;;;;5068456;28;20143;-65
2022/08/27 06:10:07;;;;;;;6.82;2.50;;;16.20;99.90;;;;;;5034175;28;20041;-65
2022/08/27 06:12:33;;;;;;;8.05;2.28;;;;;;;;;;5057836;28;20043;-65
2022/08/27 06:14:59;;;;;;;6.70;2.40;;;;;;;;;;5053573;28;20036;-65
2022/08/27 06:17:25;;;;;;;7.75;2.53;;;16.30;99.90;;;;;;5061103;28;20393;-65
2022/08/27 06:19:51;;;;;;;9.00;2.88;;;;;;;;;;5055278;28;20036;-65
2022/08/27 06:22:17;;;;;;;8.48;2.70;;;;;;;;;;5053125;28;20131;-65
2022/08/27 06:24:43;;;;;;;6.75;2.35;;;;;;;;;;5089220;28;20476;-65
2022/08/27 06:27:12;;;;;;;7.43;3.00;;;16.50;99.90;;;;;;5086374;28;20044;-65
2022/08/27 06:29:39;;;;;;;5.70;2.55;;;;;;;;;;5088679;28;20040;-65
2022/08/27 06:32:05;;;;;;;7.40;2.42;;;;;;;;;;5042838;28;20078;-65
2022/08/27 06:34:32;;;;;;;4.95;2.28;;;16.70;99.90;;;;;;5069085;28;20649;-66
2022/08/27 06:36:58;;;;;;;8.23;2.45;;;;;;;;;;5050187;28;20408;-66
2022/08/27 06:39:25;;;;;;;7.88;2.00;;;;;;;;;;5067971;28;20044;-66
2022/08/27 06:41:51;;;;;;;5.70;2.13;;;;;;;;;;5050577;28;20086;-65
2022/08/27 06:44:18;;;;;;;6.50;2.00;;;;;;;;;;5034392;28;20182;-65
2022/08/27 06:46:44;;;;;;;4.78;1.60;;;17.20;99.90;;;;;;5069219;28;20056;-65
2022/08/27 06:49:11;;;;;;;10.43;3.47;;;17.20;99.90;;;;;;5051378;28;20037;-66
2022/08/27 06:51:39;;;;;;;7.43;2.05;;;17.20;99.90;;;;;;5050679;28;20090;-65
2022/08/27 06:54:08;;;;;;;7.05;2.13;;;17.20;99.90;;;;;;5053484;28;20127;-65
2022/08/27 06:56:35;;;;;;;6.93;1.98;;;;;;;;;;5072470;28;20048;-65
2022/08/27 06:59:04;;;;;;;6.22;1.90;;;17.40;99.90;;;;;;5048724;28;20403;-66
2022/08/27 07:01:33;;;;;;;6.70;1.70;;;17.50;99.90;;;;;;5037966;28;20032;-65
2022/08/27 07:04:03;;;;;;;10.20;1.90;;;17.60;99.90;;;;;;5061073;28;20039;-65
2022/08/27 07:06:30;;;;;;;4.85;1.52;;;17.90;99.90;;;;;;5075663;28;20048;-65
2022/08/27 07:08:57;;;;;;;6.38;1.90;;;18.10;99.90;;;;;;5038032;28;20033;-66
2022/08/27 07:11:23;;;;;;;6.85;1.58;;;;;;;;;;5053078;28;20101;-65
2022/08/27 07:13:50;;;;;;;7.15;1.88;;;18.20;99.90;;;;;;5053871;28;20048;-65
2022/08/27 07:16:21;;;;;;;4.45;1.75;;;18.20;99.90;;;;;;5052833;28;20059;-65
2022/08/27 07:18:49;;;;;;;9.68;2.58;;;18.20;99.90;;;;;;5052417;28;20059;-64
2022/08/27 07:21:14;;;;;;;6.82;1.60;;;18.20;99.90;;;;;;5035759;28;20051;-66
2022/08/27 07:23:40;;;;;;;5.50;1.70;;;;;;;;;;5047661;28;20492;-67
2022/08/27 07:26:10;;;;;;;10.43;2.42;;;;;;;;;;5052582;28;20044;-67
2022/08/27 07:28:38;;;;;;;7.32;1.52;;;18.10;99.90;;;;;;5052213;28;20036;-66
2022/08/27 07:31:08;;;;;;;7.55;1.92;;;18.20;99.90;;;;;;5052920;28;20045;-67
2022/08/27 07:33:35;;;;;;;8.13;2.00;;;18.00;99.90;;;;;;5037218;28;20044;-66
2022/08/27 07:36:01;;;;;;;5.32;1.45;;;;;;;;;;5055706;28;20047;-67
2022/08/27 07:38:27;;;;;;;5.90;1.58;;;18.60;99.90;;;;;;5051843;28;20117;-67
2022/08/27 07:40:53;;;;;;;4.45;1.45;;;;;;;;;;5078295;28;20101;-67
2022/08/27 07:46:04;;;;;;;9.80;1.92;;;;;;;;;;5070183;28;20139;-67
2022/08/27 07:48:33;;;;;;;5.38;1.63;;;;;;;;;;5054082;28;20765;-67
2022/08/27 07:51:04;;;;;;;8.20;1.70;;;18.70;99.90;;;;;;5053177;28;20041;-67
2022/08/27 07:53:31;;;;;;;6.40;1.75;;;19.00;99.90;;;;;;5052947;28;20047;-67
2022/08/27 07:56:16;;;;;;;4.60;1.20;;;19.10;99.90;;;;;;5079333;28;20040;-66
2022/08/27 07:58:42;;;;;;;7.75;1.83;;;;;;;;;;5061542;28;20045;-67
2022/08/27 08:01:08;;;;;;;5.53;1.38;;;19.20;99.90;;;;;;5064516;28;20412;-66
2022/08/27 08:03:34;;;;;;;4.45;1.27;;;19.20;99.90;;;;;;5056177;28;20048;-67
2022/08/27 08:06:05;;;;;;;6.45;1.65;;;19.50;99.90;;;;;;5062285;28;20056;-66
2022/08/27 08:08:32;;;;;;;7.00;1.40;;;20.30;99.90;;;;;;5088295;28;20406;-66
2022/08/27 08:10:58;;;;;;;5.75;1.63;;;19.40;99.90;;;;;;5036351;28;20040;-66
2022/08/27 08:13:25;;;;;;;6.05;1.20;;;;;;;;;;5071915;28;20040;-67
2022/08/27 08:15:50;;;;;;;4.15;1.23;;;19.60;99.90;;;;;;5083281;28;20045;-69
2022/08/27 08:18:16;;;;;;;7.30;1.70;;;;;;;;;;5070073;28;20546;-68
2022/08/27 08:20:43;;;;;;;4.72;1.20;;;;;;;;;;5069979;28;20124;-66
2022/08/27 08:23:09;;;;;;;7.50;1.65;;;;;;;;;;5051417;28;20772;-66
2022/08/27 08:25:34;;;;;;;6.15;1.33;;;19.50;99.90;;;;;;5073133;28;20165;-66
2022/08/27 08:28:00;;;;;;;7.63;1.88;;;19.40;99.90;;;;;;5048289;28;20454;-67
2022/08/27 08:30:26;;;;;;;8.73;1.77;;;19.30;99.90;;;;;;5050699;28;20548;-67
2022/08/27 08:32:52;;;;;;;4.30;1.27;;;19.20;99.90;;;;;;5053969;28;20028;-66
2022/08/27 08:35:18;;;;;;;6.40;1.60;;;19.10;99.90;;;;;;5054051;28;20072;-67
2022/08/27 08:37:44;;;;;;;4.68;1.55;;;19.20;99.90;;;;;;5055016;28;20033;-66
2022/08/27 08:40:40;;;;;;;11.68;1.77;;;19.30;99.90;;;;;;5086508;28;20063;-68
2022/08/27 08:43:11;;;;;;;4.65;1.48;;;19.60;99.90;;;;;;5052030;28;20116;-68
2022/08/27 08:45:40;;;;;;;4.97;1.50;;;19.70;99.90;;;;;;5074828;28;20056;-68
2022/08/27 08:48:14;;;;;;;5.68;1.48;;;19.80;99.90;;;;;;5071291;28;20399;-68
2022/08/27 08:51:14;;;;;;;8.48;1.83;;;19.90;99.90;;;;;;5061334;28;20094;-67
2022/08/27 08:54:05;;;;;;;5.03;1.75;;;20.10;99.90;;;;;;5038387;28;20044;-68
2022/08/27 08:56:44;;;;;;;5.22;1.48;;;20.20;99.90;;;;;;5038775;28;20045;-68
2022/08/27 08:59:17;;;;;;;4.97;1.40;;;20.30;99.90;;;;;;5071576;28;20455;-71
2022/08/27 09:01:44;;;;;;;4.70;1.77;;;20.30;99.90;;;;;;5054865;28;20040;-67
2022/08/27 09:04:10;;;;;;;6.20;1.40;;;20.20;99.90;;;;;;5074249;28;20044;-69
2022/08/27 09:07:02;;;;;;;5.32;1.42;;;20.00;99.90;;;;;;5073076;28;20036;-69
2022/08/27 09:09:46;;;;;;;6.28;1.60;;;19.90;99.90;;;;;;5059546;28;20036;-68
2022/08/27 09:12:21;;;;;;;5.57;1.47;;;19.70;99.90;;;;;;5064251;28;20044;-68
2022/08/27 09:14:50;;;;;;;11.50;1.70;;;19.60;99.90;;;;;;5093012;28;20106;-70
2022/08/27 09:17:16;;;;;;;7.15;1.92;;;19.40;99.90;;;;;;5076583;28;20445;-68
2022/08/27 09:19:42;;;;;;;6.65;2.25;;;19.40;99.90;;;;;;5054212;28;20040;-69
2022/08/27 09:22:23;;;;;;;4.78;1.10;;;19.30;99.90;;;;;;5071075;28;20052;-69
2022/08/27 09:25:02;;;;;;;9.50;1.70;;;19.40;99.90;;;;;;5053667;28;20567;-68
2022/08/27 09:27:28;;;;;;;4.97;1.70;;;19.40;99.90;;;;;;5085525;28;20036;-68
2022/08/27 09:29:55;;;;;;;5.57;1.50;;;19.40;99.90;;;;;;5075327;28;20051;-67
2022/08/27 09:32:32;;;;;;;4.75;1.77;;;19.50;99.90;;;;;;5070676;28;20037;-66
2022/08/27 09:35:02;;;;;;;4.63;1.33;;;19.60;99.90;;;;;;5054390;28;20473;-66
2022/08/27 09:37:33;;;;;;;5.78;1.58;;;19.60;99.90;;;;;;5053931;28;20041;-66
2022/08/27 09:40:12;;;;;;;4.28;1.00;;;19.70;99.90;;;;;;5037485;28;20048;-66
2022/08/27 09:42:43;;;;;;;4.80;1.00;;;19.80;99.90;;;;;;5072115;28;20033;-66
2022/08/27 09:45:20;;;;;;;6.30;1.60;;;19.90;99.90;;;;;;5052809;28;20393;-66
2022/08/27 09:48:01;;;;;;;3.88;1.25;;;19.90;99.90;;;;;;5054097;28;20067;-66
2022/08/27 09:50:33;;;;;;;4.13;1.30;;;19.80;99.90;;;;;;5071835;28;20037;-66
2022/08/27 09:52:59;;;;;;;6.22;1.60;;;19.70;99.90;;;;;;5053255;28;20048;-66
2022/08/27 09:55:34;;;;;;;6.22;1.58;;;19.70;99.90;;;;;;5036978;28;20040;-66
2022/08/27 09:58:02;;;;;;;5.40;1.00;;;19.90;99.90;;;;;;5053638;28;20044;-67
2022/08/27 10:00:39;;;;;;;5.53;1.40;;;20.00;99.90;;;;;;5053152;28;20045;-67
2022/08/27 10:03:08;;;;;;;4.28;1.20;;;20.00;99.90;;;;;;5053406;28;20382;-69
2022/08/27 10:05:42;;;;;;;7.65;2.15;;;19.60;99.90;;;;;;5054404;28;20400;-69
2022/08/27 10:08:27;;;;;;;6.32;1.25;;;20.00;99.90;;;;;;5051733;28;20041;-67
2022/08/27 10:10:59;;;;;;;5.22;1.40;;;20.20;99.90;;;;;;5052616;28;20114;-66
2022/08/27 10:13:32;;;;;;;4.43;1.30;;;20.30;99.90;;;;;;5036206;28;20059;-67
2022/08/27 10:16:19;;;;;;;4.47;0.93;;;20.30;99.90;;;;;;5072340;28;20045;-66
2022/08/27 10:19:21;;;;;;;5.15;1.15;;;20.60;99.90;;;;;;5040392;28;20067;-67
2022/08/27 10:21:55;;;;;;;6.78;1.20;;;20.50;99.90;;;;;;5070778;28;20443;-67
2022/08/27 10:24:45;;;;;;;4.13;1.10;;;20.30;99.90;;;;;;5053198;28;20051;-66
2022/08/27 10:27:20;;;;;;;4.72;1.02;;;20.40;99.90;;;;;;5035903;28;20431;-67
2022/08/27 10:30:06;;;;;;;6.03;1.20;;;20.20;99.90;;;;;;5057202;28;20123;-67
2022/08/27 10:32:44;;;;;;;3.72;1.33;;;20.40;99.90;;;;;;5056453;28;20036;-65
2022/08/27 10:35:35;;;;;;;5.00;1.42;;;20.40;99.90;;;;;;5074062;28;20480;-70
2022/08/27 10:38:13;;;;;;;4.93;1.17;;;20.50;99.90;;;;;;5075486;28;20037;-67
2022/08/27 10:41:01;;;;;;;5.68;1.70;;;20.50;99.90;;;;;;5056367;28;20036;-68
2022/08/27 10:43:33;;;;;;;6.10;1.30;;;20.50;99.90;;;;;;5056833;28;20070;-69
2022/08/27 10:46:36;;;;;;;5.38;1.23;;;20.60;99.90;;;;;;5055336;28;20056;-69
2022/08/27 10:49:26;;;;;;;5.75;1.60;;;20.80;99.90;;;;;;5074188;28;20555;-69
2022/08/27 10:51:55;;;;;;;5.55;1.65;;;20.80;99.90;;;;;;5057570;28;20045;-67
2022/08/27 10:54:44;;;;;;;5.25;1.92;;;20.70;99.90;;;;;;5056638;28;20048;-67
2022/08/27 10:57:33;;;;;;;4.72;1.30;;;20.50;99.90;;;;;;5055882;28;20041;-66
2022/08/27 11:00:33;;;;;;;8.05;1.73;;;20.40;99.90;;;;;;5057162;28;20075;-65
2022/08/27 11:03:07;;;;;;;6.93;1.50;;;20.40;99.90;;;;;;5005472;28;20492;-68
2022/08/27 11:05:42;;;;;;;;;;;20.30;99.90;;;;;;5057728;28;20041;-68
2022/08/27 11:08:26;;;;;;;5.63;1.23;;;20.20;99.90;;;;;;5074497;28;19940;-68
2022/08/27 11:11:00;;;;;;;4.57;1.05;;;20.20;99.90;;;;;;5056358;28;20493;-67
2022/08/27 11:13:37;;;;;;;4.40;1.00;;;20.20;99.90;;;;;;5040144;28;20056;-65
2022/08/27 11:16:21;;;;;;;4.80;1.70;;;20.30;99.90;;;;;;5060059;28;20056;-65
2022/08/27 11:18:56;;;;;;;6.75;2.33;;;20.30;99.90;;;;;;5091807;28;20040;-65
2022/08/27 11:21:36;;;;;;;6.63;1.27;;;20.40;99.90;;;;;;5067378;28;20121;-65
2022/08/27 11:24:24;;;;;;;6.88;1.15;;;20.50;99.90;;;;;;5049320;28;20051;-67
2022/08/27 11:26:55;;;;;;;5.40;1.45;;;20.50;99.90;;;;;;5073363;28;20075;-64
2022/08/27 11:29:30;;;;;;;7.03;1.27;;;20.50;99.90;;;;;;5052327;28;20036;-63
2022/08/27 11:31:59;;;;;;;;;;;20.60;99.90;;;;;;5054545;28;20039;-65
2022/08/27 11:34:55;;;;;;;7.28;1.20;;;20.60;99.90;;;;;;5082075;28;19919;-65
2022/08/27 11:37:49;;;;;;;6.97;1.88;;;20.60;99.90;;;;;;5059468;28;20046;-64
2022/08/27 11:40:17;;;;;;;4.13;1.20;;;20.80;99.90;;;;;;5073872;28;20037;-65
2022/08/27 11:42:47;;;;;;;7.22;1.38;;;20.90;99.90;;;;;;5075204;28;20049;-66
2022/08/27 11:45:23;;;;;;;5.15;1.30;;;21.00;99.90;;;;;;5041474;28;21307;-65
2022/08/27 11:48:01;;;;;;;6.55;1.10;;;20.80;99.90;;;;;;5081969;28;20514;-65
2022/08/27 11:50:29;;;;;;;3.42;0.80;;;20.70;99.90;;;;;;5052691;28;20043;-65
2022/08/27 11:53:04;;;;;;;4.40;1.00;;;20.60;99.90;;;;;;5063092;28;20089;-64
2022/08/27 11:55:38;;;;;;;3.70;0.80;;;20.70;99.90;;;;;;5036093;28;20044;-66
2022/08/27 11:58:26;;;;;;;5.13;1.65;;;20.90;99.90;;;;;;5051075;28;20924;-66
2022/08/27 12:00:52;;;;;;;5.53;1.52;;;20.50;99.90;;;;;;5060654;28;20134;-66
2022/08/27 12:03:18;;;;;;;7.60;1.60;;;20.80;99.80;;;;;;5060928;28;20378;-67
2022/08/27 12:05:53;;;;;;;7.38;2.40;;;20.80;99.20;;;;;;5052478;28;20033;-66
2022/08/27 12:08:21;;;;;;;9.20;1.15;;;20.80;99.20;;;;;;5040101;28;20045;-67
2022/08/27 12:11:08;;;;;;;6.47;1.10;;;20.90;99.10;;;;;;5072694;28;20040;-68
2022/08/27 12:13:34;;;;;;;7.07;1.35;;;21.00;99.90;;;;;;5061224;28;20119;-67
2022/08/27 12:16:11;;;;;;;6.85;2.35;;;20.80;99.40;;;;;;5068169;28;20074;-65
2022/08/27 12:18:46;;;;;;;5.57;1.35;;;20.90;99.70;;;;;;5069785;28;20052;-64
2022/08/27 12:21:25;;;;;;;6.53;2.00;;;20.80;99.90;;;;;;5055066;28;20084;-64
2022/08/27 12:24:12;;;;;;;6.32;1.67;;;21.10;99.90;;;;;;5076576;28;20420;-64
2022/08/27 12:26:42;;;;;;;6.43;1.98;;;21.00;99.20;;;;;;5051918;28;20036;-67
2022/08/27 12:29:28;;;;;;;5.28;1.80;;;21.00;99.90;;;;;;5075854;28;20078;-67
2022/08/27 12:32:17;;;;;;;5.25;1.50;;;21.10;99.90;;;;;;5059623;28;20089;-68
2022/08/27 12:35:03;;;;;;;6.55;2.15;;;21.20;99.90;;;;;;5055702;28;20048;-67
2022/08/27 12:37:35;;;;;;;4.15;1.55;;;21.20;99.70;;;;;;5055755;28;20123;-67
2022/08/27 12:40:07;;;;;;;8.55;1.83;;;21.10;99.40;;;;;;5070413;28;20075;-67
2022/08/27 12:42:33;;;;;;;7.35;1.75;;;21.00;99.90;;;;;;5069804;28;20036;-68
2022/08/27 12:44:59;;;;;;;5.32;1.95;;;21.00;99.90;;;;;;5052071;28;20485;-68
2022/08/27 12:47:25;;;;;;;9.13;2.08;;;20.90;99.50;;;;;;5051478;28;20044;-68
2022/08/27 12:50:00;;;;;;;4.63;1.88;;;20.90;99.00;;;;;;5088340;28;20042;-68
2022/08/27 12:52:55;;;;;;;6.95;1.88;;;21.00;98.10;;;;;;5063006;28;20038;-68
2022/08/27 12:55:26;;;;;;;7.25;1.90;;;20.80;98.60;;;;;;4982531;28;20218;-68
2022/08/27 12:58:01;;;;;;;5.72;1.67;;;20.70;99.50;;;;;;5052157;28;20090;-68
2022/08/27 13:00:31;;;;;;;;;;;20.70;99.90;;;;;;5073272;28;20075;-68
2022/08/27 13:03:36;;;;;;;8.00;2.33;;;20.60;99.90;;;;;;5068539;28;20334;-68
2022/08/27 13:06:13;;;;;;;10.88;2.03;;;20.50;99.90;;;;;;5055199;28;20139;-67
2022/08/27 13:08:38;;;;;;;4.30;1.65;;;20.50;99.90;;;;;;5050833;28;20048;-67
2022/08/27 13:11:18;;;;;;;8.25;2.00;;;20.50;99.90;;;;;;5062327;28;20055;-67
2022/08/27 13:13:44;;;;;;;6.22;2.10;;;20.50;99.90;;;;;;5066392;28;20089;-68
2022/08/27 13:16:11;;;;;;;5.65;1.80;;;20.60;99.90;;;;;;5083840;28;20110;-68
2022/08/27 13:18:37;;;;;;;6.03;2.53;;;20.70;99.90;;;;;;5067351;28;20048;-68
2022/08/27 13:21:22;;;;;;;6.15;1.90;;;20.70;99.90;;;;;;5072279;28;20124;-68
2022/08/27 13:23:53;;;;;;;9.77;2.33;;;20.70;99.90;;;;;;5088048;28;20071;-67
2022/08/27 13:26:22;;;;;;;6.05;2.10;;;20.60;99.90;;;;;;5052673;28;20040;-67
2022/08/27 13:28:48;;;;;;;5.65;1.85;;;20.50;99.90;;;;;;5071752;28;20487;-67